createdAt,value
2023-03-12T00:01:40.320Z,2.21
2023-03-12T00:04:07.170Z,2.25
2023-03-12T00:06:36.963Z,2.26
2023-03-12T00:09:04.638Z,2.27
2023-03-12T00:11:33.449Z,2.29
2023-03-12T00:14:01.322Z,2.33
2023-03-12T00:16:28.049Z,2.37
2023-03-12T00:19:03.154Z,2.38
2023-03-12T00:21:29.543Z,2.40
2023-03-12T00:23:56.172Z,2.45
2023-03-12T00:26:27.210Z,2.49
2023-03-12T00:28:53.763Z,2.52
2023-03-12T00:31:29.697Z,2.53
2023-03-12T00:33:56.696Z,2.61
2023-03-12T00:39:11.446Z,2.65
2023-03-12T00:41:40.833Z,2.69
2023-03-12T00:44:07.223Z,2.71
2023-03-12T00:49:14.446Z,2.76
2023-03-12T00:51:40.814Z,2.78
2023-03-12T00:54:07.255Z,2.78
2023-03-12T00:56:34.107Z,2.81
2023-03-12T00:59:09.447Z,2.78
2023-03-12T01:01:35.783Z,2.77
2023-03-12T01:04:14.683Z,2.74
2023-03-12T01:06:48.345Z,2.75
2023-03-12T01:09:14.757Z,2.74
2023-03-12T01:11:41.326Z,2.72
2023-03-12T01:14:11.942Z,2.70
2023-03-12T01:16:38.354Z,2.64
2023-03-12T01:19:04.786Z,2.64
2023-03-12T01:21:34.339Z,2.65
2023-03-12T01:24:03.665Z,2.67
2023-03-12T01:26:46.646Z,2.65
2023-03-12T01:31:54.713Z,2.66
2023-03-12T01:34:26.277Z,2.68
2023-03-12T01:36:52.702Z,2.72
2023-03-12T01:39:22.604Z,2.67
2023-03-12T01:41:52.045Z,2.68
2023-03-12T01:44:18.641Z,2.70
2023-03-12T01:46:48.400Z,2.74
2023-03-12T01:49:34.790Z,2.77
2023-03-12T01:52:16.504Z,2.83
2023-03-12T01:54:49.081Z,2.86
2023-03-12T01:57:20.966Z,2.86
2023-03-12T01:59:54.679Z,2.92
2023-03-12T02:02:27.090Z,2.97
2023-03-12T02:05:05.026Z,2.99
2023-03-12T02:07:33.624Z,3.01
2023-03-12T02:10:06.626Z,3.00
2023-03-12T02:12:33.295Z,3.02
2023-03-12T02:15:03.124Z,3.03
2023-03-12T02:17:31.167Z,3.06
2023-03-12T02:20:34.029Z,3.07
2023-03-12T02:23:16.872Z,3.13
2023-03-12T02:25:47.727Z,3.13
2023-03-12T02:28:20.541Z,3.16
2023-03-12T02:31:09.878Z,3.13
2023-03-12T02:33:39.261Z,3.11
2023-03-12T02:36:08.293Z,3.12
2023-03-12T02:38:44.710Z,3.12
2023-03-12T02:41:28.673Z,3.17
2023-03-12T02:44:18.728Z,3.20
2023-03-12T02:46:51.075Z,3.23
2023-03-12T02:49:20.418Z,3.21
2023-03-12T02:51:48.215Z,3.25
2023-03-12T02:54:21.740Z,3.30
2023-03-12T02:56:52.416Z,3.25
2023-03-12T02:59:22.059Z,3.24
2023-03-12T03:01:53.036Z,3.26
2023-03-12T03:04:19.407Z,3.27
2023-03-12T03:06:49.953Z,3.26
2023-03-12T03:09:16.873Z,3.23
2023-03-12T03:11:43.314Z,3.20
2023-03-12T03:14:10.172Z,3.17
2023-03-12T03:16:40.161Z,3.17
2023-03-12T03:19:07.161Z,3.20
2023-03-12T03:21:37.211Z,3.22
2023-03-12T03:24:04.387Z,3.23
2023-03-12T03:26:30.877Z,3.26
2023-03-12T03:28:59.806Z,3.24
2023-03-12T03:31:29.068Z,3.26
2023-03-12T03:34:02.853Z,3.24
2023-03-12T03:36:32.126Z,3.20
2023-03-12T03:39:02.000Z,3.21
2023-03-12T03:41:28.635Z,3.23
2023-03-12T03:43:59.472Z,3.23
2023-03-12T03:46:29.476Z,3.21
2023-03-12T03:48:59.025Z,3.20
2023-03-12T03:51:26.460Z,3.22
2023-03-12T03:53:54.106Z,3.20
2023-03-12T03:56:20.574Z,3.20
2023-03-12T03:58:46.949Z,3.26
2023-03-12T04:01:14.582Z,3.26
2023-03-12T04:03:44.865Z,3.24
2023-03-12T04:06:11.935Z,3.24
2023-03-12T04:08:41.871Z,3.26
2023-03-12T04:11:11.454Z,3.28
2023-03-12T04:13:43.943Z,3.32
2023-03-12T04:16:11.269Z,3.32
2023-03-12T04:18:40.145Z,3.31
2023-03-12T04:21:14.398Z,3.35
2023-03-12T04:23:43.839Z,3.31
2023-03-12T04:26:10.779Z,3.32
2023-03-12T04:28:38.054Z,3.34
2023-03-12T04:31:11.596Z,3.33
2023-03-12T04:33:41.315Z,3.35
2023-03-12T04:36:13.014Z,3.38
2023-03-12T04:38:42.581Z,3.34
2023-03-12T04:41:12.732Z,3.34
2023-03-12T04:43:45.060Z,3.36
2023-03-12T04:46:11.620Z,3.37
2023-03-12T04:48:41.470Z,3.40
2023-03-12T04:51:10.834Z,3.39
2023-03-12T04:56:33.537Z,3.32
2023-03-12T04:59:03.101Z,3.30
2023-03-12T05:01:35.832Z,3.26
2023-03-12T05:04:04.821Z,3.24
2023-03-12T05:06:31.683Z,3.23
2023-03-12T05:08:58.143Z,3.19
2023-03-12T05:11:25.899Z,3.20
2023-03-12T05:13:55.876Z,3.16
2023-03-12T05:16:22.380Z,3.19
2023-03-12T05:18:49.120Z,3.19
2023-03-12T05:21:24.621Z,3.18
2023-03-12T05:23:51.077Z,3.19
2023-03-12T05:26:31.352Z,3.17
2023-03-12T05:29:03.655Z,3.18
2023-03-12T05:31:33.132Z,3.17
2023-03-12T05:34:01.903Z,3.18
2023-03-12T05:36:30.860Z,3.17
2023-03-12T05:38:57.305Z,3.19
2023-03-12T05:41:29.957Z,3.21
2023-03-12T05:43:57.587Z,3.21
2023-03-12T05:46:27.767Z,3.21
2023-03-12T05:49:01.816Z,3.25
2023-03-12T05:51:34.643Z,3.22
2023-03-12T05:54:01.583Z,3.20
2023-03-12T05:56:28.629Z,3.27
2023-03-12T05:58:58.277Z,3.30
2023-03-12T06:01:27.770Z,3.33
2023-03-12T06:03:55.335Z,3.33
2023-03-12T06:06:30.426Z,3.35
2023-03-12T06:08:59.707Z,3.36
2023-03-12T06:11:28.861Z,3.38
2023-03-12T06:13:56.943Z,3.39
2023-03-12T06:16:32.890Z,3.35
2023-03-12T06:19:05.155Z,3.38
2023-03-12T06:21:36.363Z,3.38
2023-03-12T06:24:03.069Z,3.40
2023-03-12T06:26:33.015Z,3.42
2023-03-12T06:28:59.405Z,3.45
2023-03-12T06:31:25.902Z,3.45
2023-03-12T06:34:02.026Z,3.40
2023-03-12T06:36:28.428Z,3.39
2023-03-12T06:38:57.245Z,3.42
2023-03-12T06:41:26.958Z,3.38
2023-03-12T06:43:53.564Z,3.40
2023-03-12T06:46:28.466Z,3.41
2023-03-12T06:48:55.129Z,3.40
2023-03-12T06:51:21.511Z,3.38
2023-03-12T06:53:50.410Z,3.39
2023-03-12T06:56:16.850Z,3.39
2023-03-12T06:58:43.550Z,3.38
2023-03-12T07:01:10.797Z,3.36
2023-03-12T07:03:37.251Z,3.37
2023-03-12T07:06:06.276Z,3.37
2023-03-12T07:08:42.912Z,3.32
2023-03-12T07:11:13.466Z,3.33
2023-03-12T07:13:43.323Z,3.26
2023-03-12T07:16:22.344Z,3.29
2023-03-12T07:18:48.823Z,3.29
2023-03-12T07:21:25.076Z,3.29
2023-03-12T07:23:52.143Z,3.36
2023-03-12T07:29:02.636Z,3.43
2023-03-12T07:31:32.273Z,3.47
2023-03-12T07:33:58.915Z,3.45
2023-03-12T07:36:37.014Z,3.48
2023-03-12T07:41:48.574Z,3.44
2023-03-12T07:44:18.001Z,3.46
2023-03-12T07:46:44.633Z,3.45
2023-03-12T07:49:13.819Z,3.44
2023-03-12T07:51:43.312Z,3.50
2023-03-12T07:54:09.746Z,3.52
2023-03-12T07:56:39.431Z,3.57
2023-03-12T07:59:06.205Z,3.60
2023-03-12T08:01:32.677Z,3.63
2023-03-12T08:04:03.420Z,3.67
2023-03-12T08:06:30.005Z,3.66
2023-03-12T08:08:56.445Z,3.67
2023-03-12T08:11:34.285Z,3.75
2023-03-12T08:14:01.696Z,3.85
2023-03-12T08:16:28.158Z,3.92
2023-03-12T08:18:57.686Z,3.99
2023-03-12T08:21:24.513Z,4.06
2023-03-12T08:23:50.931Z,4.07
2023-03-12T08:26:20.458Z,4.05
2023-03-12T08:28:54.330Z,4.09
2023-03-12T08:31:23.622Z,4.12
2023-03-12T08:33:52.640Z,4.12
2023-03-12T08:36:24.812Z,4.21
2023-03-12T08:38:51.208Z,4.26
2023-03-12T08:43:58.293Z,4.35
2023-03-12T08:46:24.745Z,4.40
2023-03-12T08:48:51.135Z,4.43
2023-03-12T08:51:17.596Z,4.46
2023-03-12T08:53:47.103Z,4.44
2023-03-12T08:56:16.690Z,4.56
2023-03-12T08:58:50.868Z,4.64
2023-03-12T09:01:18.513Z,4.64
2023-03-12T09:03:48.227Z,4.68
2023-03-12T09:06:19.527Z,4.73
2023-03-12T09:08:47.300Z,4.77
2023-03-12T09:11:23.680Z,4.85
2023-03-12T09:14:33.481Z,4.95
2023-03-12T09:16:46.635Z,5.14
2023-03-12T09:19:13.066Z,5.18
2023-03-12T09:21:42.686Z,5.31
2023-03-12T09:24:10.031Z,5.48
2023-03-12T09:26:36.454Z,5.52
2023-03-12T09:29:12.107Z,5.51
2023-03-12T09:31:38.661Z,5.50
2023-03-12T09:34:07.900Z,5.68
2023-03-12T09:36:37.625Z,5.85
2023-03-12T09:41:48.779Z,5.95
2023-03-12T09:45:02.977Z,6.11
2023-03-12T09:47:35.691Z,6.19
2023-03-12T09:50:52.391Z,6.16
2023-03-12T09:53:48.462Z,6.13
2023-03-12T09:56:24.429Z,6.18
2023-03-12T09:58:54.573Z,6.22
2023-03-12T10:01:49.379Z,6.32
2023-03-12T10:04:23.936Z,6.36
2023-03-12T10:07:11.907Z,6.48
2023-03-12T10:10:13.260Z,6.65
2023-03-12T10:13:08.328Z,6.73
2023-03-12T10:16:23.665Z,6.77
2023-03-12T10:19:27.163Z,6.79
2023-03-12T10:22:24.615Z,6.94
2023-03-12T10:28:37.448Z,7.06
2023-03-12T10:31:08.991Z,7.15
2023-03-12T10:33:44.639Z,7.20
2023-03-12T10:36:46.963Z,7.25
2023-03-12T10:39:20.210Z,7.34
2023-03-12T10:41:50.565Z,7.48
2023-03-12T10:44:24.150Z,7.70
2023-03-12T10:47:14.149Z,7.85
2023-03-12T10:49:41.923Z,7.87
2023-03-12T10:52:14.370Z,7.88
2023-03-12T10:54:47.117Z,8.00
2023-03-12T10:57:17.406Z,8.15
2023-03-12T10:59:57.740Z,8.29
2023-03-12T11:02:53.853Z,8.33
2023-03-12T11:05:56.341Z,8.55
2023-03-12T11:08:27.893Z,8.61
2023-03-12T11:10:55.784Z,8.58
2023-03-12T11:13:30.265Z,8.60
2023-03-12T11:15:59.660Z,8.67
2023-03-12T11:18:30.453Z,8.70
2023-03-12T11:21:12.815Z,8.78
2023-03-12T11:24:13.846Z,8.88
2023-03-12T11:26:47.106Z,8.91
2023-03-12T11:29:35.373Z,8.89
2023-03-12T11:35:11.082Z,9.00
2023-03-12T11:38:10.798Z,9.08
2023-03-12T11:40:54.999Z,9.22
2023-03-12T11:43:56.869Z,9.29
2023-03-12T11:46:43.229Z,9.22
2023-03-12T11:49:23.817Z,9.16
2023-03-12T11:52:10.540Z,9.13
2023-03-12T11:55:07.925Z,9.11
2023-03-12T11:58:07.146Z,9.08
2023-03-12T12:00:55.796Z,9.13
2023-03-12T12:03:45.821Z,9.21
2023-03-12T12:06:46.948Z,9.28
2023-03-12T12:09:42.027Z,9.32
2023-03-12T12:12:23.294Z,9.30
2023-03-12T12:15:20.541Z,9.34
2023-03-12T12:18:12.889Z,9.44
2023-03-12T12:21:23.817Z,9.47
2023-03-12T12:24:17.768Z,9.44
2023-03-12T12:30:27.403Z,9.54
2023-03-12T12:33:12.019Z,9.73
2023-03-12T12:35:40.654Z,9.87
2023-03-12T12:38:48.134Z,10.00
2023-03-12T12:41:37.174Z,10.11
2023-03-12T12:44:18.715Z,10.25
2023-03-12T12:47:05.694Z,10.23
2023-03-12T12:49:47.333Z,10.16
2023-03-12T12:52:21.955Z,10.13
2023-03-12T12:55:03.705Z,10.15
2023-03-12T12:57:44.958Z,10.15
2023-03-12T13:00:40.444Z,10.36
2023-03-12T13:03:07.411Z,10.51
2023-03-12T13:05:37.067Z,10.49
2023-03-12T13:08:18.090Z,10.44
2023-03-12T13:10:58.088Z,10.65
2023-03-12T13:13:30.963Z,10.70
2023-03-12T13:16:36.388Z,10.64
2023-03-12T13:19:14.779Z,10.57
2023-03-12T13:22:06.182Z,10.54
2023-03-12T13:24:56.077Z,10.48
2023-03-12T13:27:34.855Z,10.44
2023-03-12T13:30:41.350Z,10.50
2023-03-12T13:33:17.857Z,10.55
2023-03-12T13:36:03.797Z,10.48
2023-03-12T13:39:03.960Z,10.51
2023-03-12T13:41:57.355Z,10.49
2023-03-12T13:44:23.741Z,10.47
2023-03-12T13:47:24.306Z,10.58
2023-03-12T13:50:06.154Z,10.83
2023-03-12T13:52:58.912Z,11.15
2023-03-12T13:55:32.334Z,11.43
2023-03-12T13:58:32.077Z,11.62
2023-03-12T14:01:06.829Z,11.81
2023-03-12T14:03:44.873Z,11.87
2023-03-12T14:06:19.017Z,11.76
2023-03-12T14:12:37.108Z,12.23
2023-03-12T14:15:29.538Z,12.24
2023-03-12T14:18:01.219Z,12.30
2023-03-12T14:20:39.303Z,12.24
2023-03-12T14:23:14.116Z,12.14
2023-03-12T14:25:47.681Z,12.09
2023-03-12T14:28:25.847Z,11.97
2023-03-12T14:31:27.245Z,11.84
2023-03-12T14:34:08.064Z,11.86
2023-03-12T14:37:02.629Z,11.81
2023-03-12T14:39:44.183Z,11.66
2023-03-12T14:42:43.409Z,11.65
2023-03-12T14:45:22.112Z,11.81
2023-03-12T14:47:58.442Z,11.70
2023-03-12T14:50:38.269Z,11.70
2023-03-12T14:53:20.486Z,11.69
2023-03-12T14:55:58.968Z,11.70
2023-03-12T14:58:26.043Z,11.72
2023-03-12T15:01:00.730Z,11.69
2023-03-12T15:03:28.943Z,11.72
2023-03-12T15:05:59.071Z,11.71
2023-03-12T15:08:25.859Z,11.69
2023-03-12T15:10:58.386Z,11.65
2023-03-12T15:13:28.175Z,11.46
2023-03-12T15:16:02.953Z,11.35
2023-03-12T15:18:33.134Z,11.39
2023-03-12T15:21:05.237Z,11.44
2023-03-12T15:23:37.588Z,11.44
2023-03-12T15:26:37.910Z,11.44
2023-03-12T15:29:30.343Z,11.39
2023-03-12T15:32:00.877Z,11.29
2023-03-12T15:34:39.277Z,11.29
2023-03-12T15:37:39.699Z,11.23
2023-03-12T15:40:27.657Z,11.18
2023-03-12T15:43:01.473Z,11.25
2023-03-12T15:45:39.394Z,11.28
2023-03-12T15:48:25.236Z,11.25
2023-03-12T15:50:51.686Z,11.19
2023-03-12T15:53:20.915Z,11.16
2023-03-12T15:56:00.142Z,11.05
2023-03-12T16:02:06.293Z,10.90
2023-03-12T16:04:35.538Z,10.91
2023-03-12T16:09:43.346Z,10.88
2023-03-12T16:12:12.580Z,10.88
2023-03-12T16:14:39.990Z,10.84
2023-03-12T16:17:14.312Z,10.83
2023-03-12T16:19:43.842Z,10.81
2023-03-12T16:22:10.316Z,10.78
2023-03-12T16:24:38.062Z,10.75
2023-03-12T16:27:20.665Z,10.71
2023-03-12T16:29:50.168Z,10.69
2023-03-12T16:32:19.114Z,10.65
2023-03-12T16:34:47.851Z,10.60
2023-03-12T16:37:14.485Z,10.59
2023-03-12T16:39:51.542Z,10.57
2023-03-12T16:42:24.200Z,10.56
2023-03-12T16:44:57.872Z,10.51
2023-03-12T16:47:27.791Z,10.49
2023-03-12T16:49:57.795Z,10.48
2023-03-12T16:52:27.098Z,10.46
2023-03-12T16:55:00.282Z,10.42
2023-03-12T16:57:32.543Z,10.40
2023-03-12T17:00:07.815Z,10.35
2023-03-12T17:02:37.494Z,10.31
2023-03-12T17:05:07.564Z,10.30
2023-03-12T17:07:35.424Z,10.30
2023-03-12T17:10:08.996Z,10.25
2023-03-12T17:12:44.129Z,10.25
2023-03-12T17:15:24.577Z,10.24
2023-03-12T17:18:01.153Z,10.21
2023-03-12T17:20:36.246Z,10.18
2023-03-12T17:23:09.157Z,10.17
2023-03-12T17:25:38.102Z,10.16
2023-03-12T17:28:12.453Z,10.13
2023-03-12T17:30:38.915Z,10.09
2023-03-12T17:36:05.464Z,9.98
2023-03-12T17:38:41.285Z,9.98
2023-03-12T17:41:23.479Z,9.94
2023-03-12T17:43:51.703Z,9.89
2023-03-12T17:46:22.054Z,9.84
2023-03-12T17:48:48.489Z,9.81
2023-03-12T17:51:14.904Z,9.81
2023-03-12T17:53:41.736Z,9.78
2023-03-12T17:56:15.540Z,9.78
2023-03-12T17:58:47.529Z,9.78
2023-03-12T18:01:15.541Z,9.76
2023-03-12T18:03:44.202Z,9.79
2023-03-12T18:06:11.539Z,9.78
2023-03-12T18:08:38.009Z,9.81
2023-03-12T18:11:04.668Z,9.81
2023-03-12T18:13:33.378Z,9.81
2023-03-12T18:16:02.577Z,9.80
2023-03-12T18:18:29.004Z,9.77
2023-03-12T18:20:58.128Z,9.74
2023-03-12T18:23:27.758Z,9.78
2023-03-12T18:25:56.583Z,9.80
2023-03-12T18:28:24.220Z,9.82
2023-03-12T18:30:54.500Z,9.84
2023-03-12T18:33:21.182Z,9.85
2023-03-12T18:35:47.620Z,9.85
2023-03-12T18:38:13.969Z,9.85
2023-03-12T18:40:40.360Z,9.87
2023-03-12T18:43:10.647Z,9.88
2023-03-12T18:45:41.426Z,9.88
2023-03-12T18:48:10.177Z,9.90
2023-03-12T18:50:40.893Z,9.88
2023-03-12T18:53:07.489Z,9.90
2023-03-12T18:55:36.868Z,9.91
2023-03-12T18:58:06.317Z,9.90
2023-03-12T19:03:19.575Z,9.88
2023-03-12T19:05:48.575Z,9.88
2023-03-12T19:08:15.608Z,9.88
2023-03-12T19:10:53.701Z,9.84
2023-03-12T19:13:24.955Z,9.85
2023-03-12T19:16:07.341Z,9.84
2023-03-12T19:18:38.344Z,9.82
2023-03-12T19:21:10.690Z,9.80
2023-03-12T19:23:37.178Z,9.82
2023-03-12T19:26:04.624Z,9.81
2023-03-12T19:28:35.471Z,9.80
2023-03-12T19:31:10.351Z,9.82
2023-03-12T19:33:36.831Z,9.83
2023-03-12T19:36:04.275Z,9.83
2023-03-12T19:38:32.744Z,9.86
2023-03-12T19:41:00.008Z,9.86
2023-03-12T19:43:29.163Z,9.88
2023-03-12T19:46:00.728Z,9.90
2023-03-12T19:48:30.686Z,9.90
2023-03-12T19:50:57.373Z,9.91
2023-03-12T19:53:27.290Z,9.90
2023-03-12T19:55:53.754Z,9.94
2023-03-12T19:58:20.088Z,9.94
2023-03-12T20:00:50.264Z,9.95
2023-03-12T20:03:20.752Z,9.93
2023-03-12T20:05:53.640Z,9.93
2023-03-12T20:08:21.829Z,9.94
2023-03-12T20:10:53.061Z,9.95
2023-03-12T20:13:23.067Z,9.94
2023-03-12T20:15:49.495Z,9.92
2023-03-12T20:18:19.998Z,9.92
2023-03-12T20:20:46.889Z,9.94
2023-03-12T20:23:13.264Z,9.91
2023-03-12T20:25:44.208Z,9.92
2023-03-12T20:28:13.835Z,9.91
2023-03-12T20:30:46.190Z,9.90
2023-03-12T20:33:12.901Z,9.89
2023-03-12T20:35:40.451Z,9.88
2023-03-12T20:38:11.075Z,9.87
2023-03-12T20:40:49.040Z,9.88
2023-03-12T20:43:21.529Z,9.87
2023-03-12T20:45:49.844Z,9.87
2023-03-12T20:48:23.970Z,9.87
2023-03-12T20:53:33.152Z,9.84
2023-03-12T20:55:59.572Z,9.83
2023-03-12T20:58:25.983Z,9.82
2023-03-12T21:00:52.424Z,9.82
2023-03-12T21:03:29.041Z,9.84
2023-03-12T21:06:00.673Z,9.84
2023-03-12T21:08:30.700Z,9.84
2023-03-12T21:10:57.112Z,9.82
2023-03-12T21:13:32.430Z,9.83
2023-03-12T21:15:58.868Z,9.83
2023-03-12T21:23:51.200Z,9.81
2023-03-12T21:26:21.862Z,9.81
2023-03-12T21:28:49.703Z,9.80
2023-03-12T21:31:26.290Z,9.78
2023-03-12T21:34:18.022Z,9.78
2023-03-12T21:36:47.391Z,9.81
2023-03-12T21:39:21.130Z,9.80
2023-03-12T21:41:50.415Z,9.82
2023-03-12T21:44:20.224Z,9.81
2023-03-12T21:46:46.628Z,9.82
2023-03-12T21:49:13.990Z,9.81
2023-03-12T21:51:40.571Z,9.76
2023-03-12T21:54:09.979Z,9.79
2023-03-12T21:56:36.696Z,9.76
2023-03-12T21:59:11.096Z,9.78
2023-03-12T22:01:40.518Z,9.79
2023-03-12T22:04:14.463Z,9.80
2023-03-12T22:06:43.609Z,9.80
2023-03-12T22:09:15.148Z,9.79
2023-03-12T22:11:44.877Z,9.71
2023-03-12T22:14:11.258Z,9.70
2023-03-12T22:16:39.334Z,9.66
2023-03-12T22:19:09.149Z,9.65
2023-03-12T22:21:35.728Z,9.64
2023-03-12T22:24:13.709Z,9.59
2023-03-12T22:26:46.906Z,9.59
2023-03-12T22:29:13.403Z,9.57
2023-03-12T22:31:39.845Z,9.56
2023-03-12T22:36:49.395Z,9.57
2023-03-12T22:39:18.598Z,9.57
2023-03-12T22:41:51.511Z,9.58
2023-03-12T22:44:20.248Z,9.55
2023-03-12T22:46:46.752Z,9.54
2023-03-12T22:49:23.850Z,9.50
2023-03-12T22:51:50.169Z,9.47
2023-03-12T22:54:16.825Z,9.47
2023-03-12T22:56:43.147Z,9.47
2023-03-12T22:59:10.430Z,9.42
2023-03-12T23:01:36.883Z,9.42
2023-03-12T23:04:06.145Z,9.40
2023-03-12T23:06:32.769Z,9.38
2023-03-12T23:08:59.358Z,9.36
2023-03-12T23:11:35.990Z,9.39
2023-03-12T23:14:02.532Z,9.40
2023-03-12T23:16:52.056Z,9.34
2023-03-12T23:19:21.504Z,9.34
2023-03-12T23:21:47.845Z,9.36
2023-03-12T23:24:17.718Z,9.36
2023-03-12T23:26:44.814Z,9.38
2023-03-12T23:29:12.579Z,9.34
2023-03-12T23:31:42.420Z,9.32
2023-03-12T23:34:12.798Z,9.30
2023-03-12T23:36:42.822Z,9.30
2023-03-12T23:39:12.867Z,9.26
2023-03-12T23:41:41.298Z,9.26
2023-03-12T23:44:08.035Z,9.30
2023-03-12T23:46:34.547Z,9.30
2023-03-12T23:49:00.875Z,9.31
2023-03-12T23:51:32.138Z,9.30
2023-03-12T23:54:09.469Z,9.27
2023-03-12T23:56:39.845Z,9.26
2023-03-12T23:59:09.122Z,9.28
